Time;durP1;ratioP1;P1;durP2;ratioP2;P2;SDS_P1;SDS_P2;PMS_P1;PMS_P2;Temp;Humidity;BMP_temperature;BMP_pressure;BME280_temperature;BME280_humidity;BME280_pressure;Samples;Min_cycle;Max_cycle;Signal;HPM_P1;HPM_P2
2022/01/25 00:09:19;;;;;;;145.13;65.65;;;64.80;1612.80;;;;;;5053670;28;20059;-56
2022/01/25 00:28:17;;;;;;;98.45;43.13;;;64.90;1561.60;;;;;;5053835;28;20037;-57
2022/01/25 00:30:57;;;;;;;90.43;40.57;;;64.90;1561.60;;;;;;5053408;28;20414;-56
2022/01/25 00:33:22;;;;;;;97.83;42.13;;;64.90;1561.60;;;;;;5053416;28;20086;-57
2022/01/25 00:35:48;;;;;;;110.37;46.97;;;89.60;1561.60;;;;;;5053506;28;20033;-57
2022/01/25 00:38:14;;;;;;;113.90;49.30;;;89.70;1536.00;;;;;;5053444;28;20111;-57
2022/01/25 00:40:39;;;;;;;112.55;47.80;;;89.70;1536.00;;;;;;5053313;28;20025;-57
2022/01/25 00:43:05;;;;;;;106.65;43.28;;;89.60;1561.60;;;;;;5053572;28;20029;-57
2022/01/25 00:45:31;;;;;;;98.80;43.28;;;89.60;1587.20;;;;;;5053411;28;20096;-56
2022/01/25 00:47:57;;;;;;;93.70;40.77;;;89.70;1561.60;;;;;;5053449;28;20061;-57
2022/01/25 00:50:24;;;;;;;94.37;40.83;;;89.70;1510.40;;;;;;5053286;28;20387;-57
2022/01/25 00:55:21;;;;;;;89.90;39.20;;;89.60;1536.00;;;;;;5053366;28;20032;-57
2022/01/25 00:57:47;;;;;;;88.93;37.83;;;64.90;1510.40;;;;;;5053366;28;20021;-56
2022/01/25 01:00:13;;;;;;;94.03;42.33;;;64.90;1484.80;;;;;;5053099;28;20060;-57
2022/01/25 01:02:39;;;;;;;93.83;40.67;;;64.90;1484.80;;;;;;5053212;28;20025;-57
2022/01/25 01:05:05;;;;;;;84.95;36.83;;;64.90;1484.80;;;;;;5053360;28;20125;-56
2022/01/25 01:07:31;;;;;;;78.68;34.10;;;89.90;1536.00;;;;;;5053193;28;20501;-57
2022/01/25 01:09:59;;;;;;;72.88;31.02;;;89.80;1561.60;;;;;;5053213;28;20144;-57
2022/01/25 01:15:09;;;;;;;64.25;28.92;;;89.60;1510.40;;;;;;5054804;28;20029;-57
2022/01/25 01:43:44;;;;;;;135.33;54.27;;;115.90;1664.00;;;;;;5057063;28;20025;-57
2022/01/25 01:48:51;;;;;;;136.03;54.97;;;116.00;1664.00;;;;;;5056573;28;20028;-56
2022/01/25 01:53:52;;;;;;;;;;;116.00;1664.00;;;;;;5056716;28;20155;-56
2022/01/25 01:56:18;;;;;;;120.70;52.20;;;116.00;1664.00;;;;;;5056479;28;19967;-57
2022/01/25 01:58:44;;;;;;;110.47;47.37;;;116.10;1689.60;;;;;;5056203;28;20041;-56
2022/01/25 02:01:15;;;;;;;119.97;47.00;;;116.10;1689.60;;;;;;5056256;28;20512;-57
2022/01/25 02:03:41;;;;;;;116.83;47.53;;;116.00;1689.60;;;;;;5056682;28;20029;-57
2022/01/25 02:06:08;;;;;;;122.50;52.70;;;116.10;1664.00;;;;;;5055964;28;20021;-56
2022/01/25 02:08:34;;;;;;;128.73;53.50;;;116.00;1689.60;;;;;;5055811;28;20037;-57
2022/01/25 02:11:01;;;;;;;134.40;54.17;;;115.90;1715.20;;;;;;5055964;28;20154;-56
2022/01/25 02:13:27;;;;;;;124.97;53.00;;;115.60;1689.60;;;;;;5056327;28;20036;-56
2022/01/25 02:15:55;;;;;;;142.83;59.70;;;115.70;1664.00;;;;;;5055790;28;20025;-56
2022/01/25 02:23:36;;;;;;;164.87;71.43;;;115.90;1689.60;;;;;;5056224;28;20498;-56
2022/01/25 02:26:04;;;;;;;178.97;78.67;;;115.80;1715.20;;;;;;5054527;28;20426;-57
2022/01/25 02:28:36;;;;;;;170.60;73.10;;;115.60;1792.00;;;;;;5055605;28;20033;-56
2022/01/25 02:31:05;;;;;;;162.63;69.87;;;115.30;1740.80;;;;;;5055621;28;20040;-57
2022/01/25 02:33:31;;;;;;;159.47;66.77;;;115.20;1689.60;;;;;;5055703;28;20123;-56
2022/01/25 02:35:58;;;;;;;171.57;72.20;;;90.50;1664.00;;;;;;5055424;28;20025;-56
2022/01/25 02:38:27;;;;;;;151.77;66.50;;;90.40;1638.40;;;;;;5055594;28;20352;-56
2022/01/25 02:40:54;;;;;;;153.27;64.87;;;90.30;1612.80;;;;;;5055568;28;20025;-56
2022/01/25 02:43:21;;;;;;;143.70;62.13;;;90.30;1612.80;;;;;;5055475;28;20083;-57
2022/01/25 02:46:16;;;;;;;126.97;54.63;;;90.30;1587.20;;;;;;5055207;28;20017;-56
2022/01/25 02:49:00;;;;;;;146.13;62.17;;;90.20;1587.20;;;;;;5055010;28;20045;-56
2022/01/25 02:51:32;;;;;;;136.47;55.90;;;90.20;1561.60;;;;;;5055245;28;20475;-57
2022/01/25 02:53:58;;;;;;;130.40;56.67;;;90.10;1536.00;;;;;;5055389;28;20555;-56
2022/01/25 02:56:26;;;;;;;135.07;56.53;;;90.10;1536.00;;;;;;5055121;28;20029;-56
2022/01/25 02:58:52;;;;;;;137.63;58.13;;;90.00;1510.40;;;;;;5054968;28;20099;-57
2022/01/25 03:01:20;;;;;;;133.87;55.53;;;90.00;1510.40;;;;;;5055400;28;20104;-56
2022/01/25 03:03:46;;;;;;;127.43;54.10;;;89.90;1510.40;;;;;;5054944;28;20035;-56
2022/01/25 03:06:17;;;;;;;124.70;52.70;;;89.90;1510.40;;;;;;5055051;28;20029;-57
2022/01/25 03:08:43;;;;;;;118.57;50.20;;;90.10;1484.80;;;;;;5055127;28;20089;-56
2022/01/25 03:11:09;;;;;;;126.33;51.70;;;90.40;1536.00;;;;;;5054901;28;20021;-57
2022/01/25 03:13:36;;;;;;;125.57;56.87;;;115.30;1561.60;;;;;;5054916;28;20029;-57
2022/01/25 03:16:07;;;;;;;128.10;53.63;;;115.40;1766.40;;;;;;5054906;28;20126;-56
2022/01/25 03:21:18;;;;;;;124.03;55.63;;;90.30;1766.40;;;;;;5054652;28;20384;-56
2022/01/25 03:23:44;;;;;;;132.23;54.60;;;90.10;1817.60;;;;;;5054688;28;20033;-56
2022/01/25 03:26:10;;;;;;;134.53;57.50;;;90.10;1766.40;;;;;;5054719;28;20029;-56
2022/01/25 03:28:36;;;;;;;132.97;54.67;;;90.10;1689.60;;;;;;5054461;28;20531;-57
2022/01/25 03:31:02;;;;;;;141.03;58.23;;;90.20;1664.00;;;;;;5054176;28;20104;-57
2022/01/25 03:33:28;;;;;;;142.87;58.83;;;90.20;1612.80;;;;;;5054500;28;20043;-56
2022/01/25 03:35:54;;;;;;;133.73;59.50;;;90.20;1612.80;;;;;;5054572;28;20074;-57
2022/01/25 03:38:19;;;;;;;136.73;56.90;;;90.20;1587.20;;;;;;5054091;28;20025;-56
2022/01/25 03:40:46;;;;;;;132.93;57.17;;;90.30;1587.20;;;;;;5054457;28;20433;-57
2022/01/25 03:43:14;;;;;;;129.70;56.60;;;90.10;1561.60;;;;;;5054239;28;20104;-56
2022/01/25 03:45:46;;;;;;;172.63;68.97;;;90.10;1536.00;;;;;;5054112;28;20471;-56
2022/01/25 03:50:43;;;;;;;176.80;67.37;;;90.00;1510.40;;;;;;5054297;28;20403;-56
2022/01/25 03:53:10;;;;;;;156.93;66.23;;;90.10;1510.40;;;;;;5054108;28;20360;-56
2022/01/25 03:55:37;;;;;;;181.70;69.83;;;90.10;1510.40;;;;;;5054161;28;20104;-56
2022/01/25 03:58:03;;;;;;;178.87;71.37;;;90.00;1510.40;;;;;;5054143;28;20048;-56
2022/01/25 04:00:29;;;;;;;174.67;69.60;;;90.00;1510.40;;;;;;5053623;28;20098;-56
2022/01/25 04:03:06;;;;;;;154.47;64.30;;;90.20;1510.40;;;;;;5053972;28;20478;-56
2022/01/25 04:05:39;;;;;;;152.60;62.07;;;90.40;1536.00;;;;;;5054000;28;20033;-57
2022/01/25 04:08:05;;;;;;;156.87;63.53;;;115.50;1561.60;;;;;;5053676;28;20047;-57
2022/01/25 04:10:31;;;;;;;157.43;64.87;;;115.70;1587.20;;;;;;5053472;28;20036;-56
2022/01/25 04:12:57;;;;;;;182.97;71.00;;;115.80;1612.80;;;;;;5053654;28;20036;-56
2022/01/25 04:15:23;;;;;;;174.73;73.03;;;116.00;1664.00;;;;;;5053585;28;20021;-56
2022/01/25 04:17:57;;;;;;;171.80;68.07;;;116.00;1740.80;;;;;;5053739;28;20029;-56
2022/01/25 04:20:27;;;;;;;171.17;71.17;;;115.90;1689.60;;;;;;5053668;28;20033;-56
2022/01/25 04:25:38;;;;;;;186.02;75.90;;;140.80;1689.60;;;;;;5053983;28;20429;-57
2022/01/25 04:28:03;;;;;;;174.87;71.50;;;140.90;1689.60;;;;;;5053481;28;20037;-56
2022/01/25 04:30:29;;;;;;;148.87;64.40;;;141.00;1689.60;;;;;;5053596;28;20017;-56
2022/01/25 04:33:04;;;;;;;150.07;62.70;;;141.00;1689.60;;;;;;5053558;28;20490;-56
2022/01/25 04:55:01;;;;;;;155.57;65.38;;;116.10;1817.60;;;;;;5057980;28;20032;-57
2022/01/25 05:02:28;;;;;;;155.57;67.17;;;115.60;1689.60;;;;;;5057410;28;20025;-57
2022/01/25 05:05:01;;;;;;;152.33;65.67;;;115.60;1664.00;;;;;;5057789;28;20561;-56
2022/01/25 05:10:11;;;;;;;157.33;65.90;;;115.50;1612.80;;;;;;5057665;28;20029;-56
2022/01/25 05:12:43;;;;;;;156.33;67.37;;;115.40;1587.20;;;;;;5057249;28;20025;-56
2022/01/25 05:18:35;;;;;;;222.60;89.43;;;115.30;1561.60;;;;;;5054988;28;20152;-56
2022/01/25 05:23:44;;;;;;;192.27;77.27;;;115.20;1561.60;;;;;;5055405;28;20041;-56
2022/01/25 05:26:10;;;;;;;187.67;76.20;;;115.20;1561.60;;;;;;5054859;28;20543;-56
2022/01/25 05:28:36;;;;;;;187.80;77.00;;;115.70;1587.20;;;;;;5054668;28;20040;-56
2022/01/25 05:31:01;;;;;;;181.13;74.00;;;116.00;1638.40;;;;;;5054698;28;20108;-56
2022/01/25 05:33:27;;;;;;;165.87;69.27;;;140.80;1664.00;;;;;;5054973;28;20091;-56
2022/01/25 05:35:53;;;;;;;165.03;70.10;;;141.00;1664.00;;;;;;5054733;28;20583;-56
2022/01/25 05:38:18;;;;;;;175.47;72.50;;;141.00;1664.00;;;;;;5054708;28;20028;-56
2022/01/25 05:40:48;;;;;;;181.17;75.00;;;141.00;1766.40;;;;;;5054722;28;20040;-56
2022/01/25 05:48:11;;;;;;;156.43;66.90;;;115.90;1868.80;;;;;;5054886;28;20045;-56
2022/01/25 05:50:37;;;;;;;154.83;61.57;;;115.70;1843.20;;;;;;5056602;28;20439;-56
2022/01/25 05:53:03;;;;;;;156.47;65.23;;;115.60;1766.40;;;;;;5056607;28;20116;-56
2022/01/25 05:55:29;;;;;;;155.80;66.40;;;115.50;1715.20;;;;;;5056487;28;20033;-56
2022/01/25 05:57:54;;;;;;;158.03;65.70;;;115.40;1689.60;;;;;;5056475;28;20364;-56
2022/01/25 06:00:21;;;;;;;154.70;65.40;;;115.40;1664.00;;;;;;5055686;28;20053;-55
2022/01/25 06:02:52;;;;;;;146.67;61.80;;;115.50;1638.40;;;;;;5056609;28;20040;-56
2022/01/25 06:05:18;;;;;;;129.70;56.83;;;115.50;1587.20;;;;;;5056259;28;20032;-56
2022/01/25 06:07:44;;;;;;;119.23;52.50;;;115.40;1587.20;;;;;;5056161;28;20037;-56
2022/01/25 06:10:10;;;;;;;106.87;47.77;;;115.30;1561.60;;;;;;5056773;28;20021;-56
2022/01/25 06:12:36;;;;;;;119.83;51.63;;;115.30;1561.60;;;;;;5056043;28;20024;-56
2022/01/25 06:15:01;;;;;;;133.30;56.27;;;115.20;1536.00;;;;;;5055843;28;20060;-56
2022/01/25 06:17:27;;;;;;;126.27;51.80;;;115.20;1536.00;;;;;;5055872;28;20025;-56
2022/01/25 06:19:53;;;;;;;120.53;54.17;;;115.40;1561.60;;;;;;5055987;28;20035;-56
2022/01/25 06:22:19;;;;;;;133.20;58.83;;;115.80;1612.80;;;;;;5055849;28;20378;-56
2022/01/25 06:24:44;;;;;;;125.97;57.20;;;116.10;1638.40;;;;;;5055950;28;20025;-56
2022/01/25 06:27:10;;;;;;;235.20;92.07;;;140.90;1664.00;;;;;;5055481;28;20420;-56
2022/01/25 06:29:36;;;;;;;185.17;79.27;;;141.00;1689.60;;;;;;5055638;28;20124;-56
2022/01/25 06:32:02;;;;;;;162.70;70.73;;;141.10;1689.60;;;;;;5055606;28;20060;-56
2022/01/25 06:34:27;;;;;;;158.97;67.77;;;141.20;1715.20;;;;;;5037939;28;20029;-56
2022/01/25 06:36:53;;;;;;;122.87;58.00;;;141.10;1740.80;;;;;;5054251;28;20051;-56
2022/01/25 06:39:19;;;;;;;141.23;63.37;;;140.90;1868.80;;;;;;5055529;28;20078;-56
2022/01/25 06:41:45;;;;;;;138.50;61.87;;;140.80;1945.60;;;;;;5055946;28;20029;-56
2022/01/25 06:44:11;;;;;;;186.57;73.90;;;115.90;1971.20;;;;;;5055346;28;20021;-56
2022/01/25 06:46:36;;;;;;;622.37;214.23;;;115.60;1868.80;;;;;;5055691;28;20021;-56
2022/01/25 06:49:03;;;;;;;743.10;292.70;;;115.40;1817.60;;;;;;5055425;28;20037;-56
2022/01/25 06:51:29;;;;;;;630.43;250.27;;;115.30;1766.40;;;;;;5055269;28;20029;-56
2022/01/25 06:53:55;;;;;;;462.60;194.30;;;90.50;1740.80;;;;;;5055694;28;20033;-56
2022/01/25 06:56:20;;;;;;;326.30;125.20;;;90.40;1715.20;;;;;;5055313;28;20393;-56
2022/01/25 06:58:46;;;;;;;225.47;90.30;;;90.20;1664.00;;;;;;5055160;28;20521;-56
2022/01/25 07:01:12;;;;;;;205.23;87.53;;;90.10;1638.40;;;;;;5055053;28;20040;-56
2022/01/25 07:03:38;;;;;;;173.50;73.77;;;89.90;1612.80;;;;;;5054751;28;20036;-56
2022/01/25 07:06:03;;;;;;;140.47;65.77;;;90.00;1612.80;;;;;;5060702;28;20378;-56
2022/01/25 07:08:29;;;;;;;120.53;57.07;;;90.00;1612.80;;;;;;5064447;28;20039;-56
2022/01/25 07:10:55;;;;;;;115.47;50.33;;;90.20;1638.40;;;;;;5062632;28;20016;-56
2022/01/25 07:13:21;;;;;;;104.60;46.00;;;90.30;1664.00;;;;;;5064703;28;20024;-55
2022/01/25 07:15:46;;;;;;;94.77;44.10;;;90.40;1689.60;;;;;;5063471;28;20017;-56
2022/01/25 07:18:15;;;;;;;103.93;46.60;;;90.50;1715.20;;;;;;5064379;28;20032;-58
2022/01/25 07:20:41;;;;;;;88.33;42.87;;;90.50;1715.20;;;;;;5065162;28;20500;-59
2022/01/25 07:23:07;;;;;;;89.40;42.37;;;90.30;1715.20;;;;;;5067856;28;20025;-56
2022/01/25 07:25:32;;;;;;;96.63;41.50;;;90.30;1715.20;;;;;;5059916;28;20029;-56
2022/01/25 07:27:58;;;;;;;89.13;41.70;;;90.30;1715.20;;;;;;5060470;28;20029;-56
2022/01/25 07:30:24;;;;;;;122.40;54.00;;;90.20;1868.80;;;;;;5064210;28;20028;-56
2022/01/25 07:32:50;;;;;;;468.40;73.00;;;90.10;2176.00;;;;;;5062064;28;20020;-56
2022/01/25 07:35:16;;;;;;;109.00;54.67;;;90.00;2176.00;;;;;;5054508;28;20041;-56
2022/01/25 07:37:42;;;;;;;99.57;47.43;;;89.80;2176.00;;;;;;5069076;28;20032;-57
2022/01/25 07:40:08;;;;;;;121.40;51.17;;;89.70;2022.40;;;;;;5074189;28;20074;-57
2022/01/25 07:42:36;;;;;;;112.63;50.87;;;89.60;1945.60;;;;;;5074225;28;20119;-56
2022/01/25 07:45:07;;;;;;;108.83;48.40;;;64.90;1868.80;;;;;;5074127;28;20419;-59
2022/01/25 07:47:34;;;;;;;98.63;44.57;;;64.80;1817.60;;;;;;5073902;28;20489;-57
2022/01/25 07:50:00;;;;;;;102.47;48.23;;;64.80;1766.40;;;;;;5074121;28;20056;-56
2022/01/25 07:52:25;;;;;;;104.03;46.17;;;64.60;1740.80;;;;;;5073823;28;20496;-56
2022/01/25 07:54:51;;;;;;;97.07;48.40;;;64.50;1715.20;;;;;;5074035;28;20063;-57
2022/01/25 07:57:17;;;;;;;121.70;60.70;;;64.40;1689.60;;;;;;5074178;28;20114;-56
2022/01/25 07:59:43;;;;;;;115.83;57.80;;;64.40;1689.60;;;;;;5073767;28;20059;-56
2022/01/25 08:02:16;;;;;;;108.10;49.42;;;64.30;1715.20;;;;;;5074151;28;20024;-56
2022/01/25 08:04:42;;;;;;;112.70;49.40;;;64.30;1689.60;;;;;;5073798;28;20025;-57
2022/01/25 08:07:08;;;;;;;103.37;50.90;;;64.40;1715.20;;;;;;5073996;28;20044;-56
2022/01/25 08:09:34;;;;;;;113.87;51.37;;;64.40;1715.20;;;;;;5073602;28;20059;-56
2022/01/25 08:12:00;;;;;;;114.55;52.67;;;64.50;1740.80;;;;;;5073748;28;20021;-56
2022/01/25 08:14:25;;;;;;;113.50;55.00;;;64.50;1715.20;;;;;;5073677;28;20025;-57
2022/01/25 08:16:52;;;;;;;108.17;51.07;;;64.50;1766.40;;;;;;5074072;28;20052;-57
2022/01/25 08:19:19;;;;;;;116.00;53.07;;;64.30;1740.80;;;;;;5073887;28;20032;-57
2022/01/25 08:21:46;;;;;;;99.47;47.47;;;64.40;1740.80;;;;;;5073804;28;20025;-56
2022/01/25 08:24:15;;;;;;;101.07;45.57;;;64.40;1766.40;;;;;;5073869;28;20112;-56
2022/01/25 08:26:44;;;;;;;96.38;46.20;;;64.40;1740.80;;;;;;5073322;28;20017;-57
2022/01/25 08:29:09;;;;;;;88.77;42.43;;;64.30;1740.80;;;;;;5073207;28;20033;-57
2022/01/25 08:31:36;;;;;;;89.33;43.57;;;64.10;1766.40;;;;;;5073715;28;20482;-57
2022/01/25 08:34:02;;;;;;;90.80;43.63;;;64.10;1740.80;;;;;;5073487;28;20029;-56
2022/01/25 08:36:28;;;;;;;84.60;41.27;;;64.10;1740.80;;;;;;5073593;28;20377;-56
2022/01/25 08:38:55;;;;;;;92.15;42.95;;;64.20;1740.80;;;;;;5073572;28;20021;-56
2022/01/25 08:41:21;;;;;;;87.67;43.13;;;64.10;1766.40;;;;;;5073467;28;20478;-57
2022/01/25 08:43:48;;;;;;;96.43;43.78;;;64.10;1740.80;;;;;;5073578;28;20029;-57
2022/01/25 08:46:14;;;;;;;91.10;43.42;;;64.00;1740.80;;;;;;5073071;28;20025;-56
2022/01/25 08:48:40;;;;;;;116.93;46.75;;;39.30;1766.40;;;;;;5073479;28;20111;-56
2022/01/25 08:51:07;;;;;;;115.38;56.63;;;39.10;1920.00;;;;;;5073606;28;20351;-57
2022/01/25 08:53:33;;;;;;;103.97;51.13;;;38.90;2124.80;;;;;;5073556;28;20104;-56
2022/01/25 08:56:00;;;;;;;141.73;57.55;;;38.80;1920.00;;;;;;5073471;28;20511;-57
2022/01/25 08:58:26;;;;;;;128.98;59.70;;;38.70;1843.20;;;;;;5073140;28;20486;-56
2022/01/25 09:00:52;;;;;;;123.10;55.38;;;38.60;1792.00;;;;;;5073460;28;20021;-56
2022/01/25 09:03:17;;;;;;;112.28;48.83;;;38.50;1766.40;;;;;;5073347;28;20036;-56
2022/01/25 09:05:43;;;;;;;98.68;47.47;;;38.50;1766.40;;;;;;5073707;28;20067;-56
2022/01/25 09:08:10;;;;;;;111.80;54.58;;;13.70;1740.80;;;;;;5073272;28;20028;-56
2022/01/25 09:10:36;;;;;;;156.23;79.32;;;13.60;1792.00;;;;;;5073205;28;20111;-57
2022/01/25 09:13:02;;;;;;;141.18;72.47;;;13.60;1766.40;;;;;;5073483;28;20040;-56
2022/01/25 09:15:30;;;;;;;126.93;66.72;;;13.60;1766.40;;;;;;5073289;28;20032;-56
2022/01/25 09:17:56;;;;;;;101.72;54.05;;;13.60;1740.80;;;;;;5073340;28;20032;-56
2022/01/25 09:20:22;;;;;;;103.05;52.33;;;13.50;1766.40;;;;;;5073306;28;20417;-57
2022/01/25 09:22:47;;;;;;;92.65;45.95;;;13.40;1792.00;;;;;;5072715;28;20529;-57
2022/01/25 09:25:13;;;;;;;83.20;44.40;;;13.20;1740.80;;;;;;5072865;28;20103;-56
2022/01/25 09:27:40;;;;;;;81.78;42.67;;;13.10;1689.60;;;;;;5073095;28;20102;-57
2022/01/25 09:30:06;;;;;;;83.70;40.33;;;13.00;1689.60;;;;;;5072845;28;20040;-56
2022/01/25 09:32:32;;;;;;;79.38;40.58;;;13.00;1689.60;;;;;;5073085;28;20352;-56
2022/01/25 09:34:58;;;;;;;86.72;40.90;;;12.90;1740.80;;;;;;5073399;28;20035;-56
2022/01/25 09:37:24;;;;;;;82.88;43.85;;;0.00;1715.20;;;;;;5076720;28;20366;-56
2022/01/25 09:39:49;;;;;;;92.78;41.88;;;0.00;1664.00;;;;;;5076969;28;20036;-57
2022/01/25 09:42:16;;;;;;;95.28;44.25;;;0.10;1689.60;;;;;;5076400;28;20106;-57
2022/01/25 09:44:42;;;;;;;88.90;44.92;;;0.00;1715.20;;;;;;5076287;28;20021;-56
2022/01/25 09:47:12;;;;;;;166.25;68.78;;;0.20;1689.60;;;;;;5076712;28;20107;-56
2022/01/25 09:49:37;;;;;;;134.02;63.38;;;0.30;1664.00;;;;;;5076494;28;20355;-56
2022/01/25 09:52:05;;;;;;;120.40;53.70;;;0.20;1638.40;;;;;;5077051;28;20036;-56
2022/01/25 09:54:33;;;;;;;96.50;47.42;;;0.10;1638.40;;;;;;5076273;28;20029;-56
2022/01/25 09:57:05;;;;;;;109.72;51.90;;;0.10;1664.00;;;;;;5076510;28;20408;-56
2022/01/25 09:59:31;;;;;;;116.18;55.70;;;0.30;1715.20;;;;;;5076089;28;20045;-56
2022/01/25 10:01:57;;;;;;;110.28;51.65;;;0.40;1689.60;;;;;;5076184;28;20029;-57
2022/01/25 10:04:27;;;;;;;98.18;47.92;;;0.30;1664.00;;;;;;5074878;28;20036;-56
2022/01/25 10:06:53;;;;;;;103.50;48.50;;;0.30;1638.40;;;;;;5076562;28;20024;-56
2022/01/25 10:09:20;;;;;;;104.05;46.95;;;0.40;1638.40;;;;;;5075815;28;20101;-56
2022/01/25 10:11:47;;;;;;;86.30;45.15;;;0.40;1689.60;;;;;;5075880;28;20021;-56
2022/01/25 10:14:13;;;;;;;95.20;43.70;;;0.60;1689.60;;;;;;5075835;28;20032;-57
2022/01/25 10:16:42;;;;;;;80.07;40.85;;;0.50;1638.40;;;;;;5075926;28;20441;-56
2022/01/25 10:19:12;;;;;;;82.40;40.10;;;0.70;1664.00;;;;;;5075941;28;20033;-57
2022/01/25 10:21:42;;;;;;;88.40;41.63;;;0.80;1766.40;;;;;;5060940;28;20035;-55
2022/01/25 10:24:15;;;;;;;104.55;44.22;;;25.60;1740.80;;;;;;5054097;28;20052;-56
2022/01/25 10:26:52;;;;;;;88.38;44.00;;;25.80;1715.20;;;;;;5055656;28;20025;-56
2022/01/25 10:29:21;;;;;;;92.47;44.80;;;25.90;1638.40;;;;;;5055382;28;20500;-56
2022/01/25 10:31:54;;;;;;;87.07;44.38;;;25.90;1638.40;;;;;;5055947;28;20017;-56
2022/01/25 10:34:26;;;;;;;88.68;43.60;;;26.00;1612.80;;;;;;5054606;28;20060;-56
2022/01/25 10:36:53;;;;;;;90.30;41.65;;;26.10;1612.80;;;;;;5060351;28;20421;-56
2022/01/25 10:39:31;;;;;;;75.88;40.47;;;26.20;1587.20;;;;;;5054556;28;20417;-58
2022/01/25 10:42:07;;;;;;;87.30;40.58;;;26.30;1612.80;;;;;;5055602;28;20029;-58
2022/01/25 10:44:51;;;;;;;89.47;41.38;;;26.40;1612.80;;;;;;5055600;28;20024;-58
2022/01/25 10:47:21;;;;;;;96.05;42.05;;;26.40;1587.20;;;;;;5054388;28;20378;-58
2022/01/25 10:49:49;;;;;;;101.60;47.53;;;26.40;1638.40;;;;;;5055334;28;20465;-58
2022/01/25 10:52:25;;;;;;;309.02;147.10;;;26.50;1612.80;;;;;;5055424;28;20098;-68
2022/01/25 10:54:51;;;;;;;130.38;65.10;;;26.50;1612.80;;;;;;5055371;28;20039;-59
2022/01/25 10:57:26;;;;;;;248.10;119.43;;;26.50;1612.80;;;;;;5055294;28;20029;-60
2022/01/25 11:00:00;;;;;;;153.23;78.38;;;51.20;1612.80;;;;;;5054709;28;20041;-62
2022/01/25 11:02:27;;;;;;;134.75;70.22;;;51.20;1664.00;;;;;;5055014;28;20493;-60
2022/01/25 11:05:07;;;;;;;122.80;56.67;;;51.30;1612.80;;;;;;5055225;28;20037;-58
2022/01/25 11:07:46;;;;;;;112.05;55.55;;;51.20;1612.80;;;;;;5055101;28;20082;-59
2022/01/25 11:10:19;;;;;;;123.40;54.92;;;51.30;1587.20;;;;;;5053566;28;20044;-58
2022/01/25 11:13:07;;;;;;;172.50;80.85;;;51.20;1587.20;;;;;;5055016;28;20060;-59
2022/01/25 11:15:32;;;;;;;107.90;58.40;;;51.30;1612.80;;;;;;5054810;28;20120;-59
2022/01/25 11:17:58;;;;;;;103.82;50.50;;;51.30;1638.40;;;;;;5055264;28;20088;-59
2022/01/25 11:20:24;;;;;;;173.15;81.97;;;51.30;1638.40;;;;;;5054926;28;20375;-59
2022/01/25 11:22:50;;;;;;;148.88;68.93;;;51.40;1664.00;;;;;;5057845;28;20025;-58
2022/01/25 11:25:19;;;;;;;147.52;62.95;;;51.40;1664.00;;;;;;5063878;28;20080;-58
2022/01/25 11:27:45;;;;;;;159.25;64.45;;;51.40;1664.00;;;;;;5063152;28;20024;-57
2022/01/25 11:30:16;;;;;;;104.28;48.08;;;51.50;1664.00;;;;;;5064827;28;20426;-57
2022/01/25 11:32:45;;;;;;;168.68;63.28;;;51.40;1664.00;;;;;;5064101;28;20052;-58
2022/01/25 11:35:13;;;;;;;233.10;86.05;;;51.50;1664.00;;;;;;5062682;28;20382;-59
2022/01/25 11:37:40;;;;;;;181.35;74.05;;;51.50;1664.00;;;;;;5064108;28;20359;-60
2022/01/25 11:40:28;;;;;;;94.82;46.55;;;51.50;1664.00;;;;;;5064645;28;20021;-59
2022/01/25 11:43:00;;;;;;;67.32;35.53;;;51.50;1689.60;;;;;;5063640;28;20435;-60
2022/01/25 11:45:29;;;;;;;61.42;35.05;;;51.70;1715.20;;;;;;5061189;28;20040;-58
2022/01/25 11:47:55;;;;;;;58.30;33.25;;;51.70;1689.60;;;;;;5063178;28;20099;-58
2022/01/25 11:50:36;;;;;;;62.33;34.53;;;51.70;1664.00;;;;;;5060840;28;20052;-59
2022/01/25 11:53:07;;;;;;;55.55;31.17;;;51.70;1638.40;;;;;;5063331;28;20432;-59
2022/01/25 11:55:37;;;;;;;66.85;34.38;;;51.70;1664.00;;;;;;5064486;28;20070;-59
2022/01/25 11:58:08;;;;;;;61.55;32.47;;;51.70;1664.00;;;;;;5063989;28;20025;-58
2022/01/25 12:00:45;;;;;;;57.10;33.70;;;51.60;1638.40;;;;;;5059573;28;20045;-58
2022/01/25 12:03:31;;;;;;;53.70;29.15;;;51.70;1664.00;;;;;;5062522;28;20532;-58
2022/01/25 12:06:04;;;;;;;51.47;27.85;;;51.70;1664.00;;;;;;5059936;28;20032;-60
2022/01/25 12:11:36;;;;;;;95.10;50.20;;;51.80;1638.40;;;;;;5062496;28;20041;-60
2022/01/25 12:14:18;;;;;;;61.22;33.50;;;51.90;1638.40;;;;;;5061633;28;20040;-59
2022/01/25 12:16:54;;;;;;;59.97;34.08;;;51.90;1638.40;;;;;;5062399;28;20494;-59
2022/01/25 12:19:31;;;;;;;54.17;29.98;;;52.00;1612.80;;;;;;5061480;28;20527;-58
2022/01/25 12:22:00;;;;;;;67.40;35.03;;;51.90;1612.80;;;;;;5060537;28;20025;-58
2022/01/25 12:24:46;;;;;;;63.97;35.92;;;51.90;1612.80;;;;;;5062533;28;20020;-58
2022/01/25 12:30:01;;;;;;;44.22;25.48;;;52.00;1638.40;;;;;;5063508;28;20036;-58
2022/01/25 12:33:04;;;;;;;46.65;25.25;;;76.80;1689.60;;;;;;5062728;28;20033;-58
2022/01/25 12:35:39;;;;;;;90.72;48.40;;;76.80;1612.80;;;;;;5063707;28;20032;-59
2022/01/25 12:38:27;;;;;;;67.97;35.97;;;76.80;1587.20;;;;;;5063373;28;20463;-58
2022/01/25 12:40:58;;;;;;;177.68;85.63;;;76.80;1587.20;;;;;;5063898;28;20040;-58
2022/01/25 12:43:30;;;;;;;99.18;51.15;;;76.80;1612.80;;;;;;5063379;28;20029;-59
2022/01/25 12:46:02;;;;;;;97.35;50.00;;;76.80;1612.80;;;;;;5059822;28;20425;-58
2022/01/25 12:48:32;;;;;;;57.60;31.15;;;76.80;1612.80;;;;;;5062256;28;20036;-57
2022/01/25 12:51:07;;;;;;;63.63;34.33;;;76.90;1638.40;;;;;;5059983;28;20021;-58
2022/01/25 12:53:36;;;;;;;65.30;32.92;;;76.90;1612.80;;;;;;5061635;28;20017;-59
2022/01/25 12:56:07;;;;;;;50.08;27.00;;;76.90;1612.80;;;;;;5062826;28;20142;-60
2022/01/25 12:58:35;;;;;;;49.60;27.02;;;77.00;1612.80;;;;;;5063639;28;20028;-59
2022/01/25 13:01:06;;;;;;;50.47;28.02;;;77.00;1587.20;;;;;;5062319;28;20505;-58
2022/01/25 13:03:39;;;;;;;59.03;31.83;;;77.00;1612.80;;;;;;5058861;28;20356;-59
2022/01/25 13:06:11;;;;;;;53.35;29.35;;;77.00;1612.80;;;;;;5052415;28;20021;-57
2022/01/25 13:08:43;;;;;;;49.38;27.70;;;77.00;1587.20;;;;;;5050649;28;20037;-58
2022/01/25 13:16:46;;;;;;;84.18;45.30;;;77.00;1612.80;;;;;;5057088;28;20024;-59
2022/01/25 13:19:15;;;;;;;86.65;45.78;;;77.10;1664.00;;;;;;5057009;28;20467;-59
2022/01/25 13:21:56;;;;;;;68.13;37.35;;;77.20;1638.40;;;;;;5057013;28;20024;-58
2022/01/25 13:24:29;;;;;;;56.72;32.40;;;77.10;1612.80;;;;;;5057136;28;20378;-58
2022/01/25 13:27:02;;;;;;;55.00;30.52;;;77.20;1612.80;;;;;;5057004;28;20106;-58
2022/01/25 13:32:28;;;;;;;39.55;22.80;;;77.30;1561.60;;;;;;5057404;28;20066;-59
2022/01/25 13:35:03;;;;;;;41.95;22.45;;;77.30;1587.20;;;;;;5056768;28;20037;-58
2022/01/25 13:37:29;;;;;;;44.38;23.30;;;77.30;1561.60;;;;;;5056980;28;20108;-58
2022/01/25 13:39:58;;;;;;;51.22;26.27;;;77.30;1587.20;;;;;;5056798;28;20036;-58
2022/01/25 13:42:29;;;;;;;50.85;26.90;;;77.20;1587.20;;;;;;5056751;28;20028;-59
2022/01/25 13:48:09;;;;;;;54.20;25.92;;;77.20;1587.20;;;;;;5056622;28;20032;-58
2022/01/25 13:50:37;;;;;;;49.08;25.75;;;77.30;1587.20;;;;;;5056706;28;20452;-58
2022/01/25 13:53:04;;;;;;;47.88;25.23;;;77.20;1561.60;;;;;;5056507;28;20052;-58
2022/01/25 13:55:31;;;;;;;45.80;23.73;;;77.30;1561.60;;;;;;5056282;28;20028;-58
2022/01/25 13:57:57;;;;;;;48.33;26.80;;;77.30;1587.20;;;;;;5056105;28;20028;-59
2022/01/25 14:00:23;;;;;;;46.38;25.75;;;77.30;1561.60;;;;;;5055934;28;20053;-58
2022/01/25 14:02:55;;;;;;;40.15;23.10;;;77.30;1561.60;;;;;;5056102;28;20478;-58
2022/01/25 14:05:22;;;;;;;36.88;20.98;;;77.30;1561.60;;;;;;5056271;28;20032;-59
2022/01/25 14:07:53;;;;;;;35.33;18.80;;;77.30;1587.20;;;;;;5056050;28;20051;-59
2022/01/25 14:10:24;;;;;;;43.30;23.70;;;77.30;1587.20;;;;;;5056178;28;20509;-58
2022/01/25 14:24:04;;;;;;;42.08;24.48;;;77.40;1612.80;;;;;;5056188;28;20078;-56
2022/01/25 14:26:30;;;;;;;46.78;26.23;;;77.40;1587.20;;;;;;5055910;28;20032;-57
2022/01/25 14:29:12;;;;;;;41.42;24.77;;;77.40;1561.60;;;;;;5055701;28;20383;-57